sensor_id;sensor_type;location;lat;lon;timestamp;pressure;altitude;pressure_sealevel;temperature;humidity
76815;BME280;65768;49.906;19.384;2023-12-20T00:01:17;97731.02;;;10.06;40.18
76815;BME280;65768;49.906;19.384;2023-12-20T00:03:46;97735.80;;;9.89;41.24
76815;BME280;65768;49.906;19.384;2023-12-20T00:06:16;97730.51;;;9.63;42.55
76815;BME280;65768;49.906;19.384;2023-12-20T00:08:46;97729.00;;;9.46;42.73
76815;BME280;65768;49.906;19.384;2023-12-20T00:11:15;97718.60;;;9.36;43.27
76815;BME280;65768;49.906;19.384;2023-12-20T00:13:43;97712.20;;;9.15;44.09
76815;BME280;65768;49.906;19.384;2023-12-20T00:16:16;97709.30;;;9.02;44.19
76815;BME280;65768;49.906;19.384;2023-12-20T00:18:44;97702.00;;;9.00;44.21
76815;BME280;65768;49.906;19.384;2023-12-20T00:21:13;97704.60;;;8.96;44.30
76815;BME280;65768;49.906;19.384;2023-12-20T00:23:41;97695.02;;;9.07;43.45
76815;BME280;65768;49.906;19.384;2023-12-20T00:26:10;97697.44;;;9.15;42.68
76815;BME280;65768;49.906;19.384;2023-12-20T00:28:39;97693.02;;;9.40;42.08
76815;BME280;65768;49.906;19.384;2023-12-20T00:31:07;97687.09;;;9.42;41.50
76815;BME280;65768;49.906;19.384;2023-12-20T00:33:36;97686.15;;;9.59;41.28
76815;BME280;65768;49.906;19.384;2023-12-20T00:36:05;97679.13;;;9.73;40.41
76815;BME280;65768;49.906;19.384;2023-12-20T00:38:33;97675.58;;;9.87;40.18
76815;BME280;65768;49.906;19.384;2023-12-20T00:41:03;97675.91;;;9.88;39.99
76815;BME280;65768;49.906;19.384;2023-12-20T00:43:31;97682.30;;;9.96;40.05
76815;BME280;65768;49.906;19.384;2023-12-20T00:46:01;97682.95;;;10.03;40.00
76815;BME280;65768;49.906;19.384;2023-12-20T00:48:29;97675.66;;;9.99;39.55
76815;BME280;65768;49.906;19.384;2023-12-20T00:51:01;97675.06;;;10.14;39.68
76815;BME280;65768;49.906;19.384;2023-12-20T00:53:30;97681.37;;;10.08;40.70
76815;BME280;65768;49.906;19.384;2023-12-20T00:56:00;97682.06;;;10.10;41.27
76815;BME280;65768;49.906;19.384;2023-12-20T00:58:29;97681.42;;;10.00;41.57
76815;BME280;65768;49.906;19.384;2023-12-20T01:00:58;97672.39;;;9.96;41.55
76815;BME280;65768;49.906;19.384;2023-12-20T01:03:28;97672.59;;;9.92;42.01
76815;BME280;65768;49.906;19.384;2023-12-20T01:05:57;97668.27;;;9.87;41.62
76815;BME280;65768;49.906;19.384;2023-12-20T01:08:26;97664.91;;;9.92;41.35
76815;BME280;65768;49.906;19.384;2023-12-20T01:10:57;97660.18;;;10.00;40.30
76815;BME280;65768;49.906;19.384;2023-12-20T01:13:26;97659.80;;;10.01;40.70
76815;BME280;65768;49.906;19.384;2023-12-20T01:15:54;97651.30;;;9.98;40.85
76815;BME280;65768;49.906;19.384;2023-12-20T01:18:24;97644.39;;;9.91;39.93
76815;BME280;65768;49.906;19.384;2023-12-20T01:20:55;97639.93;;;10.06;38.91
76815;BME280;65768;49.906;19.384;2023-12-20T01:23:23;97627.16;;;10.15;40.45
76815;BME280;65768;49.906;19.384;2023-12-20T01:25:52;97632.58;;;9.87;42.12
76815;BME280;65768;49.906;19.384;2023-12-20T01:28:20;97623.41;;;9.77;42.57
76815;BME280;65768;49.906;19.384;2023-12-20T01:30:48;97616.17;;;9.64;41.10
76815;BME280;65768;49.906;19.384;2023-12-20T01:33:19;97609.37;;;9.68;41.68
76815;BME280;65768;49.906;19.384;2023-12-20T01:35:47;97612.89;;;9.62;43.06
76815;BME280;65768;49.906;19.384;2023-12-20T01:38:17;97606.81;;;9.59;42.27
76815;BME280;65768;49.906;19.384;2023-12-20T01:40:47;97607.70;;;9.53;43.00
76815;BME280;65768;49.906;19.384;2023-12-20T01:43:16;97596.61;;;9.46;42.03
76815;BME280;65768;49.906;19.384;2023-12-20T01:45:45;97590.64;;;9.55;41.41
76815;BME280;65768;49.906;19.384;2023-12-20T01:48:16;97591.13;;;9.64;40.69
76815;BME280;65768;49.906;19.384;2023-12-20T01:50:45;97581.91;;;9.63;41.98
76815;BME280;65768;49.906;19.384;2023-12-20T01:53:16;97584.09;;;9.48;41.41
76815;BME280;65768;49.906;19.384;2023-12-20T01:55:45;97590.38;;;9.42;40.78
76815;BME280;65768;49.906;19.384;2023-12-20T01:58:16;97588.52;;;9.34;41.21
76815;BME280;65768;49.906;19.384;2023-12-20T02:00:45;97589.31;;;9.09;42.89
76815;BME280;65768;49.906;19.384;2023-12-20T02:03:13;97584.19;;;8.81;44.25
76815;BME280;65768;49.906;19.384;2023-12-20T02:05:44;97573.47;;;8.63;42.96
76815;BME280;65768;49.906;19.384;2023-12-20T02:08:13;97566.41;;;8.96;41.54
76815;BME280;65768;49.906;19.384;2023-12-20T02:10:42;97567.98;;;8.89;42.91
76815;BME280;65768;49.906;19.384;2023-12-20T02:13:11;97568.73;;;8.77;43.53
76815;BME280;65768;49.906;19.384;2023-12-20T02:15:39;97563.55;;;8.64;44.06
76815;BME280;65768;49.906;19.384;2023-12-20T02:18:11;97559.60;;;8.39;44.62
76815;BME280;65768;49.906;19.384;2023-12-20T02:20:44;97560.29;;;8.48;43.57
76815;BME280;65768;49.906;19.384;2023-12-20T02:23:12;97552.80;;;8.59;42.66
76815;BME280;65768;49.906;19.384;2023-12-20T02:25:41;97530.89;;;8.69;42.53
76815;BME280;65768;49.906;19.384;2023-12-20T02:28:09;97539.71;;;8.79;41.93
76815;BME280;65768;49.906;19.384;2023-12-20T02:30:39;97546.29;;;8.83;41.10
76815;BME280;65768;49.906;19.384;2023-12-20T02:33:12;97541.58;;;8.93;40.58
76815;BME280;65768;49.906;19.384;2023-12-20T02:35:42;97539.05;;;9.12;39.57
76815;BME280;65768;49.906;19.384;2023-12-20T02:38:10;97538.34;;;9.15;39.17
76815;BME280;65768;49.906;19.384;2023-12-20T02:40:39;97531.58;;;9.15;38.97
76815;BME280;65768;49.906;19.384;2023-12-20T02:43:07;97543.13;;;9.31;38.64
76815;BME280;65768;49.906;19.384;2023-12-20T02:45:36;97540.14;;;9.34;38.31
76815;BME280;65768;49.906;19.384;2023-12-20T02:48:04;97544.33;;;9.62;38.33
76815;BME280;65768;49.906;19.384;2023-12-20T02:50:34;97543.13;;;9.58;38.81
76815;BME280;65768;49.906;19.384;2023-12-20T02:53:02;97536.41;;;9.50;39.22
76815;BME280;65768;49.906;19.384;2023-12-20T02:55:31;97530.36;;;9.41;39.51
76815;BME280;65768;49.906;19.384;2023-12-20T02:58:00;97529.61;;;9.51;39.47
76815;BME280;65768;49.906;19.384;2023-12-20T03:00:46;97526.43;;;9.57;39.24
76815;BME280;65768;49.906;19.384;2023-12-20T03:03:14;97524.72;;;9.79;39.47
76815;BME280;65768;49.906;19.384;2023-12-20T03:05:43;97518.07;;;9.82;39.32
76815;BME280;65768;49.906;19.384;2023-12-20T03:08:14;97517.65;;;9.90;39.68
76815;BME280;65768;49.906;19.384;2023-12-20T03:10:43;97516.20;;;9.96;38.47
76815;BME280;65768;49.906;19.384;2023-12-20T03:13:11;97516.36;;;10.18;37.50
76815;BME280;65768;49.906;19.384;2023-12-20T03:15:40;97517.30;;;10.32;37.64
76815;BME280;65768;49.906;19.384;2023-12-20T03:18:10;97524.73;;;10.40;37.50
76815;BME280;65768;49.906;19.384;2023-12-20T03:20:38;97522.90;;;10.47;37.41
76815;BME280;65768;49.906;19.384;2023-12-20T03:23:06;97527.14;;;10.42;37.36
76815;BME280;65768;49.906;19.384;2023-12-20T03:25:35;97529.13;;;10.51;37.27
76815;BME280;65768;49.906;19.384;2023-12-20T03:28:04;97536.39;;;10.39;36.79
76815;BME280;65768;49.906;19.384;2023-12-20T03:30:32;97536.32;;;10.47;36.36
76815;BME280;65768;49.906;19.384;2023-12-20T03:33:01;97537.97;;;10.55;37.12
76815;BME280;65768;49.906;19.384;2023-12-20T03:35:31;97536.10;;;10.33;36.86
76815;BME280;65768;49.906;19.384;2023-12-20T03:37:59;97531.64;;;10.44;36.61
76815;BME280;65768;49.906;19.384;2023-12-20T03:40:29;97525.55;;;10.60;36.85
76815;BME280;65768;49.906;19.384;2023-12-20T03:42:59;97527.48;;;10.76;36.91
76815;BME280;65768;49.906;19.384;2023-12-20T03:45:27;97528.94;;;10.69;37.00
76815;BME280;65768;49.906;19.384;2023-12-20T03:47:56;97531.64;;;10.76;37.44
76815;BME280;65768;49.906;19.384;2023-12-20T03:50:26;97525.41;;;10.73;36.80
76815;BME280;65768;49.906;19.384;2023-12-20T03:52:55;97526.18;;;10.81;37.29
76815;BME280;65768;49.906;19.384;2023-12-20T03:55:26;97523.55;;;10.82;37.75
76815;BME280;65768;49.906;19.384;2023-12-20T03:57:55;97521.81;;;10.51;37.97
76815;BME280;65768;49.906;19.384;2023-12-20T04:00:24;97521.91;;;10.58;38.78
76815;BME280;65768;49.906;19.384;2023-12-20T04:02:53;97524.45;;;10.49;39.51
76815;BME280;65768;49.906;19.384;2023-12-20T04:05:22;97521.27;;;10.35;39.11
76815;BME280;65768;49.906;19.384;2023-12-20T04:07:51;97519.89;;;10.34;38.97
76815;BME280;65768;49.906;19.384;2023-12-20T04:10:19;97516.92;;;10.35;39.02
76815;BME280;65768;49.906;19.384;2023-12-20T04:12:48;97518.55;;;10.28;39.52
76815;BME280;65768;49.906;19.384;2023-12-20T04:15:18;97527.28;;;10.26;39.35
76815;BME280;65768;49.906;19.384;2023-12-20T04:17:47;97532.42;;;10.36;40.49
76815;BME280;65768;49.906;19.384;2023-12-20T04:20:16;97528.09;;;10.35;40.31
76815;BME280;65768;49.906;19.384;2023-12-20T04:22:45;97524.77;;;10.32;40.04
76815;BME280;65768;49.906;19.384;2023-12-20T04:25:14;97520.80;;;10.08;40.86
76815;BME280;65768;49.906;19.384;2023-12-20T04:28:00;97528.63;;;10.31;40.97
76815;BME280;65768;49.906;19.384;2023-12-20T04:30:28;97531.00;;;10.40;41.22
76815;BME280;65768;49.906;19.384;2023-12-20T04:32:56;97538.69;;;10.16;42.11
76815;BME280;65768;49.906;19.384;2023-12-20T04:35:25;97546.98;;;9.78;44.27
76815;BME280;65768;49.906;19.384;2023-12-20T04:37:55;97542.02;;;9.39;45.17
76815;BME280;65768;49.906;19.384;2023-12-20T04:40:26;97555.00;;;9.52;47.19
76815;BME280;65768;49.906;19.384;2023-12-20T04:42:56;97558.56;;;9.37;47.58
76815;BME280;65768;49.906;19.384;2023-12-20T04:45:24;97561.20;;;9.33;49.12
76815;BME280;65768;49.906;19.384;2023-12-20T04:47:52;97563.05;;;9.07;48.87
76815;BME280;65768;49.906;19.384;2023-12-20T04:50:23;97557.70;;;8.37;50.97
76815;BME280;65768;49.906;19.384;2023-12-20T04:52:51;97548.39;;;8.82;50.27
76815;BME280;65768;49.906;19.384;2023-12-20T04:55:22;97549.02;;;8.98;50.47
76815;BME280;65768;49.906;19.384;2023-12-20T04:57:50;97542.65;;;8.82;50.38
76815;BME280;65768;49.906;19.384;2023-12-20T05:00:18;97542.98;;;8.88;51.52
76815;BME280;65768;49.906;19.384;2023-12-20T05:02:47;97540.70;;;8.92;51.85
76815;BME280;65768;49.906;19.384;2023-12-20T05:05:16;97535.52;;;8.80;53.28
76815;BME280;65768;49.906;19.384;2023-12-20T05:07:46;97541.09;;;8.81;53.92
76815;BME280;65768;49.906;19.384;2023-12-20T05:10:14;97536.80;;;8.66;54.90
76815;BME280;65768;49.906;19.384;2023-12-20T05:12:42;97531.62;;;8.52;55.39
76815;BME280;65768;49.906;19.384;2023-12-20T05:15:11;97528.52;;;8.42;56.24
76815;BME280;65768;49.906;19.384;2023-12-20T05:17:40;97519.32;;;8.44;56.67
76815;BME280;65768;49.906;19.384;2023-12-20T05:20:09;97512.38;;;8.32;56.41
76815;BME280;65768;49.906;19.384;2023-12-20T05:22:38;97507.17;;;8.21;56.66
76815;BME280;65768;49.906;19.384;2023-12-20T05:25:07;97510.31;;;8.15;58.15
76815;BME280;65768;49.906;19.384;2023-12-20T05:27:36;97520.05;;;8.12;58.93
76815;BME280;65768;49.906;19.384;2023-12-20T05:30:05;97525.40;;;8.21;59.68
76815;BME280;65768;49.906;19.384;2023-12-20T05:32:36;97518.27;;;8.33;58.88
76815;BME280;65768;49.906;19.384;2023-12-20T05:35:05;97508.20;;;8.33;59.80
76815;BME280;65768;49.906;19.384;2023-12-20T05:37:34;97499.35;;;8.31;59.36
76815;BME280;65768;49.906;19.384;2023-12-20T05:40:03;97516.71;;;8.25;59.94
76815;BME280;65768;49.906;19.384;2023-12-20T05:42:33;97518.64;;;8.17;60.39
76815;BME280;65768;49.906;19.384;2023-12-20T05:45:01;97519.52;;;8.11;61.02
76815;BME280;65768;49.906;19.384;2023-12-20T05:47:30;97514.65;;;8.11;61.85
76815;BME280;65768;49.906;19.384;2023-12-20T05:49:59;97515.54;;;8.01;61.49
76815;BME280;65768;49.906;19.384;2023-12-20T05:52:27;97513.45;;;8.02;61.56
76815;BME280;65768;49.906;19.384;2023-12-20T05:54:56;97514.84;;;7.93;62.06
76815;BME280;65768;49.906;19.384;2023-12-20T05:57:27;97520.23;;;7.93;63.36
76815;BME280;65768;49.906;19.384;2023-12-20T05:59:55;97523.70;;;7.89;63.43
76815;BME280;65768;49.906;19.384;2023-12-20T06:02:27;97514.86;;;7.85;64.45
76815;BME280;65768;49.906;19.384;2023-12-20T06:04:56;97516.41;;;7.96;64.39
76815;BME280;65768;49.906;19.384;2023-12-20T06:07:24;97514.33;;;7.91;64.94
76815;BME280;65768;49.906;19.384;2023-12-20T06:09:54;97530.28;;;7.88;65.14
76815;BME280;65768;49.906;19.384;2023-12-20T06:12:24;97533.41;;;7.96;65.94
76815;BME280;65768;49.906;19.384;2023-12-20T06:14:55;97537.58;;;7.93;65.06
76815;BME280;65768;49.906;19.384;2023-12-20T06:17:26;97536.52;;;7.75;66.43
76815;BME280;65768;49.906;19.384;2023-12-20T06:19:55;97537.39;;;7.67;67.63
76815;BME280;65768;49.906;19.384;2023-12-20T06:22:23;97542.56;;;7.41;68.04
76815;BME280;65768;49.906;19.384;2023-12-20T06:24:52;97539.43;;;7.33;69.20
76815;BME280;65768;49.906;19.384;2023-12-20T06:27:20;97544.77;;;7.18;69.87
76815;BME280;65768;49.906;19.384;2023-12-20T06:29:48;97545.85;;;7.36;69.99
76815;BME280;65768;49.906;19.384;2023-12-20T06:32:17;97546.76;;;7.58;69.46
76815;BME280;65768;49.906;19.384;2023-12-20T06:34:49;97552.48;;;7.60;69.47
76815;BME280;65768;49.906;19.384;2023-12-20T06:37:17;97558.55;;;7.60;69.61
76815;BME280;65768;49.906;19.384;2023-12-20T06:39:46;97561.48;;;7.53;69.09
76815;BME280;65768;49.906;19.384;2023-12-20T06:42:14;97562.64;;;7.31;70.77
76815;BME280;65768;49.906;19.384;2023-12-20T06:45:06;97562.67;;;6.84;73.41
76815;BME280;65768;49.906;19.384;2023-12-20T06:47:34;97565.54;;;6.72;74.30
76815;BME280;65768;49.906;19.384;2023-12-20T06:50:04;97565.96;;;6.86;74.43
76815;BME280;65768;49.906;19.384;2023-12-20T06:52:34;97569.11;;;6.95;74.29
76815;BME280;65768;49.906;19.384;2023-12-20T06:55:05;97582.31;;;6.67;75.44
76815;BME280;65768;49.906;19.384;2023-12-20T06:57:35;97584.86;;;6.31;77.76
76815;BME280;65768;49.906;19.384;2023-12-20T07:00:05;97590.63;;;6.13;79.38
76815;BME280;65768;49.906;19.384;2023-12-20T07:02:35;97595.96;;;5.91;80.51
76815;BME280;65768;49.906;19.384;2023-12-20T07:05:04;97594.71;;;6.06;80.93
76815;BME280;65768;49.906;19.384;2023-12-20T07:07:32;97593.52;;;6.31;80.20
76815;BME280;65768;49.906;19.384;2023-12-20T07:10:00;97591.43;;;6.08;80.74
76815;BME280;65768;49.906;19.384;2023-12-20T07:12:29;97597.27;;;6.21;80.67
76815;BME280;65768;49.906;19.384;2023-12-20T07:14:57;97587.38;;;6.22;80.82
76815;BME280;65768;49.906;19.384;2023-12-20T07:17:25;97587.95;;;6.25;80.94
76815;BME280;65768;49.906;19.384;2023-12-20T07:19:54;97579.95;;;5.99;81.89
76815;BME280;65768;49.906;19.384;2023-12-20T07:22:22;97582.40;;;6.02;82.30
76815;BME280;65768;49.906;19.384;2023-12-20T07:24:52;97585.27;;;6.14;81.84
76815;BME280;65768;49.906;19.384;2023-12-20T07:27:22;97587.60;;;6.28;81.81
76815;BME280;65768;49.906;19.384;2023-12-20T07:29:51;97590.53;;;6.02;82.68
76815;BME280;65768;49.906;19.384;2023-12-20T07:32:40;97596.10;;;6.06;83.09
76815;BME280;65768;49.906;19.384;2023-12-20T07:35:08;97595.51;;;6.18;82.42
76815;BME280;65768;49.906;19.384;2023-12-20T07:37:38;97597.05;;;6.17;82.99
76815;BME280;65768;49.906;19.384;2023-12-20T07:40:08;97602.15;;;6.08;83.19
76815;BME280;65768;49.906;19.384;2023-12-20T07:42:36;97598.31;;;6.01;83.56
76815;BME280;65768;49.906;19.384;2023-12-20T07:45:05;97596.10;;;6.06;83.47
76815;BME280;65768;49.906;19.384;2023-12-20T07:47:35;97592.28;;;6.27;82.94
76815;BME280;65768;49.906;19.384;2023-12-20T07:50:04;97595.86;;;5.99;83.79
76815;BME280;65768;49.906;19.384;2023-12-20T07:52:32;97601.71;;;6.15;83.64
76815;BME280;65768;49.906;19.384;2023-12-20T07:55:01;97603.04;;;6.09;83.88
76815;BME280;65768;49.906;19.384;2023-12-20T07:57:30;97610.27;;;6.05;84.56
76815;BME280;65768;49.906;19.384;2023-12-20T07:59:59;97610.88;;;6.14;84.09
76815;BME280;65768;49.906;19.384;2023-12-20T08:02:28;97611.72;;;6.34;83.47
76815;BME280;65768;49.906;19.384;2023-12-20T08:04:56;97611.66;;;6.24;83.78
76815;BME280;65768;49.906;19.384;2023-12-20T08:07:25;97613.88;;;6.23;84.41
76815;BME280;65768;49.906;19.384;2023-12-20T08:09:54;97612.30;;;6.43;83.50
76815;BME280;65768;49.906;19.384;2023-12-20T08:12:24;97609.46;;;6.90;81.63
76815;BME280;65768;49.906;19.384;2023-12-20T08:15:01;97607.31;;;6.75;82.02
76815;BME280;65768;49.906;19.384;2023-12-20T08:17:31;97607.66;;;6.47;82.57
76815;BME280;65768;49.906;19.384;2023-12-20T08:20:01;97610.27;;;6.24;83.96
76815;BME280;65768;49.906;19.384;2023-12-20T08:22:30;97609.47;;;6.35;83.58
76815;BME280;65768;49.906;19.384;2023-12-20T08:24:59;97608.92;;;6.30;83.52
76815;BME280;65768;49.906;19.384;2023-12-20T08:27:27;97604.32;;;6.41;83.18
76815;BME280;65768;49.906;19.384;2023-12-20T08:29:56;97600.35;;;6.43;83.36
76815;BME280;65768;49.906;19.384;2023-12-20T08:32:27;97602.77;;;6.18;84.24
76815;BME280;65768;49.906;19.384;2023-12-20T08:34:55;97600.28;;;6.59;83.03
76815;BME280;65768;49.906;19.384;2023-12-20T08:37:24;97603.56;;;6.58;82.59
76815;BME280;65768;49.906;19.384;2023-12-20T08:39:53;97599.19;;;6.25;83.51
76815;BME280;65768;49.906;19.384;2023-12-20T08:42:21;97599.19;;;6.49;82.88
76815;BME280;65768;49.906;19.384;2023-12-20T08:44:52;97600.17;;;6.43;82.76
76815;BME280;65768;49.906;19.384;2023-12-20T08:47:21;97594.98;;;6.69;82.11
76815;BME280;65768;49.906;19.384;2023-12-20T08:49:52;97592.95;;;6.77;81.46
76815;BME280;65768;49.906;19.384;2023-12-20T08:52:26;97590.70;;;6.78;81.67
76815;BME280;65768;49.906;19.384;2023-12-20T08:54:55;97593.90;;;6.61;82.15
76815;BME280;65768;49.906;19.384;2023-12-20T08:57:24;97593.25;;;6.70;81.62
76815;BME280;65768;49.906;19.384;2023-12-20T08:59:54;97593.55;;;6.61;81.89
76815;BME280;65768;49.906;19.384;2023-12-20T09:02:23;97596.45;;;6.57;81.90
76815;BME280;65768;49.906;19.384;2023-12-20T09:04:51;97601.17;;;6.62;82.19
76815;BME280;65768;49.906;19.384;2023-12-20T09:07:24;97604.54;;;6.75;81.46
76815;BME280;65768;49.906;19.384;2023-12-20T09:09:55;97599.69;;;6.75;81.11
76815;BME280;65768;49.906;19.384;2023-12-20T09:12:25;97604.27;;;6.60;81.46
76815;BME280;65768;49.906;19.384;2023-12-20T09:14:54;97603.65;;;6.73;81.19
76815;BME280;65768;49.906;19.384;2023-12-20T09:17:22;97605.42;;;6.80;80.60
76815;BME280;65768;49.906;19.384;2023-12-20T09:19:51;97602.27;;;6.44;81.45
76815;BME280;65768;49.906;19.384;2023-12-20T09:22:22;97600.89;;;6.44;81.85
76815;BME280;65768;49.906;19.384;2023-12-20T09:25:13;97605.63;;;6.29;82.41
76815;BME280;65768;49.906;19.384;2023-12-20T09:27:43;97600.25;;;6.54;81.49
76815;BME280;65768;49.906;19.384;2023-12-20T09:30:34;97604.17;;;6.22;82.25
76815;BME280;65768;49.906;19.384;2023-12-20T09:33:06;97603.70;;;6.05;83.17
76815;BME280;65768;49.906;19.384;2023-12-20T09:35:55;97598.92;;;6.13;82.76
76815;BME280;65768;49.906;19.384;2023-12-20T09:38:24;97608.34;;;6.00;82.80
76815;BME280;65768;49.906;19.384;2023-12-20T09:40:52;97596.04;;;6.00;82.65
76815;BME280;65768;49.906;19.384;2023-12-20T09:43:24;97595.92;;;6.07;83.31
76815;BME280;65768;49.906;19.384;2023-12-20T09:46:22;97596.58;;;6.22;82.77
76815;BME280;65768;49.906;19.384;2023-12-20T09:48:53;97598.05;;;5.74;83.42
76815;BME280;65768;49.906;19.384;2023-12-20T09:51:45;97595.46;;;5.95;82.79
76815;BME280;65768;49.906;19.384;2023-12-20T09:54:58;97587.17;;;5.95;83.09
76815;BME280;65768;49.906;19.384;2023-12-20T09:57:50;97582.50;;;6.15;82.56
76815;BME280;65768;49.906;19.384;2023-12-20T10:00:19;97580.99;;;6.21;82.23
76815;BME280;65768;49.906;19.384;2023-12-20T10:03:00;97583.14;;;6.31;81.77
76815;BME280;65768;49.906;19.384;2023-12-20T10:06:12;97570.30;;;6.54;81.49
76815;BME280;65768;49.906;19.384;2023-12-20T10:08:41;97575.73;;;6.12;81.78
76815;BME280;65768;49.906;19.384;2023-12-20T10:11:12;97574.09;;;6.24;81.78
76815;BME280;65768;49.906;19.384;2023-12-20T10:14:02;97574.92;;;6.46;81.39
76815;BME280;65768;49.906;19.384;2023-12-20T10:16:50;97580.00;;;6.55;80.75
76815;BME280;65768;49.906;19.384;2023-12-20T10:19:40;97575.09;;;6.44;81.40
76815;BME280;65768;49.906;19.384;2023-12-20T10:22:11;97577.04;;;6.52;81.02
76815;BME280;65768;49.906;19.384;2023-12-20T10:25:02;97579.89;;;6.37;81.64
76815;BME280;65768;49.906;19.384;2023-12-20T10:27:31;97577.30;;;6.39;81.80
76815;BME280;65768;49.906;19.384;2023-12-20T10:30:05;97574.04;;;6.42;81.37
76815;BME280;65768;49.906;19.384;2023-12-20T10:32:37;97575.17;;;6.07;82.44
76815;BME280;65768;49.906;19.384;2023-12-20T10:35:06;97576.15;;;5.81;83.83
76815;BME280;65768;49.906;19.384;2023-12-20T10:40:46;97578.69;;;5.94;83.45
76815;BME280;65768;49.906;19.384;2023-12-20T10:43:15;97577.66;;;6.16;83.05
76815;BME280;65768;49.906;19.384;2023-12-20T10:45:45;97571.31;;;6.23;82.46
76815;BME280;65768;49.906;19.384;2023-12-20T10:48:15;97571.33;;;6.24;82.32
76815;BME280;65768;49.906;19.384;2023-12-20T10:50:48;97572.52;;;5.99;83.35
76815;BME280;65768;49.906;19.384;2023-12-20T10:56:40;97572.83;;;5.77;84.11
76815;BME280;65768;49.906;19.384;2023-12-20T10:59:11;97580.18;;;5.69;84.10
76815;BME280;65768;49.906;19.384;2023-12-20T11:01:40;97574.08;;;5.99;83.97
76815;BME280;65768;49.906;19.384;2023-12-20T11:04:15;97569.23;;;6.21;83.55
76815;BME280;65768;49.906;19.384;2023-12-20T11:06:58;97567.65;;;6.18;82.89
76815;BME280;65768;49.906;19.384;2023-12-20T11:09:38;97572.30;;;6.16;83.15
76815;BME280;65768;49.906;19.384;2023-12-20T11:12:44;97571.48;;;6.22;83.06
76815;BME280;65768;49.906;19.384;2023-12-20T11:15:17;97576.58;;;6.11;82.83
76815;BME280;65768;49.906;19.384;2023-12-20T11:17:46;97571.92;;;6.11;83.51
76815;BME280;65768;49.906;19.384;2023-12-20T11:20:14;97572.97;;;6.38;82.47
76815;BME280;65768;49.906;19.384;2023-12-20T11:22:52;97573.73;;;6.51;82.06
76815;BME280;65768;49.906;19.384;2023-12-20T11:25:22;97579.10;;;6.03;83.32
76815;BME280;65768;49.906;19.384;2023-12-20T11:28:10;97575.59;;;5.94;83.63
76815;BME280;65768;49.906;19.384;2023-12-20T11:30:52;97577.63;;;6.11;83.50
76815;BME280;65768;49.906;19.384;2023-12-20T11:33:38;97577.80;;;6.09;83.91
76815;BME280;65768;49.906;19.384;2023-12-20T11:36:18;97576.11;;;6.40;82.93
76815;BME280;65768;49.906;19.384;2023-12-20T11:38:55;97581.13;;;6.41;82.80
76815;BME280;65768;49.906;19.384;2023-12-20T11:41:25;97585.16;;;5.83;83.72
76815;BME280;65768;49.906;19.384;2023-12-20T11:43:56;97586.31;;;5.77;84.71
76815;BME280;65768;49.906;19.384;2023-12-20T11:46:25;97580.84;;;6.23;83.41
76815;BME280;65768;49.906;19.384;2023-12-20T11:48:54;97581.30;;;6.15;82.99
76815;BME280;65768;49.906;19.384;2023-12-20T11:51:44;97576.11;;;5.95;83.58
76815;BME280;65768;49.906;19.384;2023-12-20T11:54:14;97570.52;;;6.31;82.80
76815;BME280;65768;49.906;19.384;2023-12-20T11:56:43;97558.57;;;6.10;83.00
76815;BME280;65768;49.906;19.384;2023-12-20T11:59:14;97562.81;;;5.99;83.53
76815;BME280;65768;49.906;19.384;2023-12-20T12:01:53;97562.54;;;6.06;83.15
76815;BME280;65768;49.906;19.384;2023-12-20T12:35:23;97555.60;;;6.28;82.24
76815;BME280;65768;49.906;19.384;2023-12-20T12:37:52;97559.59;;;6.30;83.19
76815;BME280;65768;49.906;19.384;2023-12-20T12:40:20;97558.33;;;6.49;82.30
76815;BME280;65768;49.906;19.384;2023-12-20T12:42:48;97556.64;;;6.57;81.85
76815;BME280;65768;49.906;19.384;2023-12-20T12:45:17;97560.00;;;6.14;82.56
76815;BME280;65768;49.906;19.384;2023-12-20T12:48:25;97564.05;;;6.22;82.48
76815;BME280;65768;49.906;19.384;2023-12-20T12:50:56;97556.39;;;6.45;81.44
76815;BME280;65768;49.906;19.384;2023-12-20T12:53:47;97558.73;;;6.32;82.64
76815;BME280;65768;49.906;19.384;2023-12-20T12:56:55;97560.02;;;6.44;81.50
76815;BME280;65768;49.906;19.384;2023-12-20T13:00:24;97554.95;;;6.65;81.06
76815;BME280;65768;49.906;19.384;2023-12-20T13:03:35;97552.23;;;6.42;81.28
76815;BME280;65768;49.906;19.384;2023-12-20T13:06:24;97548.41;;;6.42;81.18
76815;BME280;65768;49.906;19.384;2023-12-20T13:08:52;97546.63;;;6.31;81.18
76815;BME280;65768;49.906;19.384;2023-12-20T13:11:21;97547.88;;;6.41;81.00
76815;BME280;65768;49.906;19.384;2023-12-20T13:13:49;97550.52;;;6.48;80.19
76815;BME280;65768;49.906;19.384;2023-12-20T13:16:18;97560.13;;;6.30;81.17
76815;BME280;65768;49.906;19.384;2023-12-20T13:19:07;97559.52;;;6.19;81.64
76815;BME280;65768;49.906;19.384;2023-12-20T13:21:57;97550.19;;;6.22;81.42
76815;BME280;65768;49.906;19.384;2023-12-20T13:24:26;97552.46;;;6.01;82.34
76815;BME280;65768;49.906;19.384;2023-12-20T13:26:55;97553.98;;;6.20;81.50
76815;BME280;65768;49.906;19.384;2023-12-20T13:30:05;97545.11;;;6.39;80.53
76815;BME280;65768;49.906;19.384;2023-12-20T13:32:37;97546.02;;;6.43;79.44
76815;BME280;65768;49.906;19.384;2023-12-20T13:35:05;97546.80;;;6.60;78.65
76815;BME280;65768;49.906;19.384;2023-12-20T13:37:34;97546.56;;;6.50;78.64
76815;BME280;65768;49.906;19.384;2023-12-20T13:40:23;97542.94;;;6.55;78.41
76815;BME280;65768;49.906;19.384;2023-12-20T13:42:51;97542.20;;;6.45;78.60
76815;BME280;65768;49.906;19.384;2023-12-20T13:45:19;97543.14;;;6.58;77.97
76815;BME280;65768;49.906;19.384;2023-12-20T13:47:47;97543.73;;;6.73;77.47
76815;BME280;65768;49.906;19.384;2023-12-20T13:50:17;97542.02;;;6.79;76.95
76815;BME280;65768;49.906;19.384;2023-12-20T13:52:48;97538.45;;;6.92;75.98
76815;BME280;65768;49.906;19.384;2023-12-20T13:55:16;97534.99;;;6.97;75.79
76815;BME280;65768;49.906;19.384;2023-12-20T13:57:45;97549.59;;;7.08;75.52
76815;BME280;65768;49.906;19.384;2023-12-20T14:00:14;97545.90;;;6.94;74.82
76815;BME280;65768;49.906;19.384;2023-12-20T14:02:42;97551.04;;;7.28;74.89